Weather reports worldwide

Advertisment
Rota, Spain (8449): temperature & dewpoint: 24.10.2020 11:00:00 - 30.10.2020 11:00:00 (CET)Rota, Spain (8449): wind speed: 24.10.2020 11:00:00 - 30.10.2020 11:00:00 (CET)Rota, Spain (8449): wind direction: 24.10.2020 11:00:00 - 30.10.2020 11:00:00 (CET)Rota, Spain (8449): visibility: 24.10.2020 11:00:00 - 30.10.2020 11:00:00 (CET)
Date & Time tt [°C] td [°C] ff [km/h] ff [kn] dd vv [km]
30.10.2020 11:00:00 20,0 11,0 9 5 ENE 10
30.10.2020 10:00:00 19,0 10,0 9 5 ENE 10
30.10.2020 09:00:00 15,0 10,0 8 4 NE 10
30.10.2020 08:00:00 12,0 9,0 5 3 NE 10
30.10.2020 07:00:00 12,0 9,0 9 5 ENE 10
30.10.2020 06:00:00 14,0 9,0 8 4 NE 10
30.10.2020 05:00:00 15,0 9,0 8 4 NE 10
30.10.2020 04:00:00 14,0 9,0 11 6 NNE 10
30.10.2020 03:00:00 14,0 6,0 11 6 NE 10
30.10.2020 02:00:00 14,0 6,0 9 5 NE 10
30.10.2020 01:00:00 15,0 5,0 8 4 NE 10
30.10.2020 00:00:00 17,0 5,0 11 6 ESE 10
29.10.2020 23:00:00 17,0 5,0 9 5 E 10
29.10.2020 22:00:00 18,0 4,0 8 4 ESE 10
29.10.2020 21:00:00 20,0 5,0 11 6 SE 10
29.10.2020 20:00:00 21,0 4,0 11 6 ESE 10
29.10.2020 19:00:00 22,0 4,0 8 4 ESE 10
29.10.2020 18:00:00 25,0 7,0 8 4 - 10
29.10.2020 17:00:00 26,0 11,0 5 3 SW 10
29.10.2020 16:00:00 26,0 9,0 9 5 S 10
29.10.2020 15:00:00 26,0 9,0 13 7 ENE 10
29.10.2020 14:00:00 24,0 13,0 8 4 N 10
29.10.2020 13:00:00 23,0 13,0 9 5 N 10
29.10.2020 12:00:00 21,0 12,0 5 3 NE 10
29.10.2020 11:00:00 19,0 12,0 5 3 NE 10
29.10.2020 10:00:00 16,0 12,0 11 6 NE 10
29.10.2020 09:00:00 14,0 12,0 8 4 NE 10
29.10.2020 08:00:00 12,0 10,0 5 3 NE 10
29.10.2020 07:00:00 12,0 11,0 4 2 - 10
29.10.2020 06:00:00 13,0 11,0 5 3 NNE 10
29.10.2020 05:00:00 13,0 11,0 11 6 ENE 10
29.10.2020 04:00:00 13,0 11,0 8 4 NE 10
29.10.2020 03:00:00 14,0 12,0 8 4 NNE 10
29.10.2020 02:00:00 15,0 13,0 11 6 NNE 10
29.10.2020 01:00:00 15,0 13,0 9 5 NNE 10
29.10.2020 00:00:00 16,0 15,0 8 4 N 10
28.10.2020 23:00:00 16,0 15,0 5 3 N 10
28.10.2020 22:00:00 17,0 15,0 13 7 NW 10
28.10.2020 21:00:00 17,0 15,0 15 8 NW 10
28.10.2020 20:00:00 17,0 15,0 15 8 NW 10
28.10.2020 19:00:00 18,0 13,0 9 5 NW 10
28.10.2020 18:00:00 20,0 13,0 13 7 NNW 10
28.10.2020 17:00:00 22,0 13,0 16 9 N 10
28.10.2020 16:00:00 22,0 12,0 18 10 N 10
28.10.2020 15:00:00 21,0 11,0 21 11 NNE 10
28.10.2020 14:00:00 21,0 11,0 22 12 NNE 10
28.10.2020 13:00:00 20,0 11,0 22 12 NNE 10
28.10.2020 12:00:00 19,0 10,0 22 12 NE 10
28.10.2020 11:00:00 18,0 10,0 21 11 NNE 10
28.10.2020 10:00:00 15,0 9,0 16 9 NNE 10
28.10.2020 09:00:00 12,0 8,0 13 7 N 10
28.10.2020 08:00:00 11,0 8,0 11 6 NNE 10
28.10.2020 07:00:00 12,0 8,0 15 8 NNE 10
28.10.2020 06:00:00 12,0 9,0 13 7 NE 10
28.10.2020 05:00:00 12,0 9,0 9 5 NE 10
28.10.2020 04:00:00 12,0 10,0 9 5 NNE 10
28.10.2020 03:00:00 13,0 10,0 13 7 NNE 10
28.10.2020 02:00:00 13,0 10,0 11 6 N 10
28.10.2020 01:00:00 15,0 12,0 8 4 WNW 10
28.10.2020 00:00:00 15,0 11,0 8 4 NW 10
27.10.2020 23:00:00 15,0 11,0 11 6 NW 10
27.10.2020 22:00:00 15,0 11,0 9 5 WNW 10
27.10.2020 21:00:00 15,0 10,0 9 5 WNW 10
27.10.2020 20:00:00 16,0 10,0 9 5 WNW 10
27.10.2020 19:00:00 16,0 9,0 8 4 W 10
27.10.2020 18:00:00 18,0 9,0 11 6 WNW 10
27.10.2020 17:00:00 18,0 9,0 15 8 WNW 10
27.10.2020 16:00:00 18,0 10,0 16 9 W 10
27.10.2020 15:00:00 18,0 9,0 16 9 W 10
27.10.2020 14:00:00 19,0 9,0 9 5 NNW 10
27.10.2020 13:00:00 19,0 7,0 13 7 NNW 10
27.10.2020 12:00:00 18,0 9,0 11 6 N 10
27.10.2020 11:00:00 16,0 9,0 11 6 NNE 10
27.10.2020 10:00:00 15,0 8,0 11 6 NE 10
27.10.2020 09:00:00 12,0 8,0 8 4 NE 10
27.10.2020 08:00:00 10,0 7,0 8 4 NE 10
27.10.2020 07:00:00 10,0 7,0 11 6 NNE 10
27.10.2020 06:00:00 10,0 8,0 11 6 NNE 10
27.10.2020 05:00:00 10,0 8,0 4 2 - 10
27.10.2020 04:00:00 12,0 7,0 8 4 N 10
27.10.2020 03:00:00 12,0 7,0 11 6 N 10
27.10.2020 02:00:00 12,0 7,0 9 5 NNE 10
27.10.2020 01:00:00 13,0 8,0 11 6 - 10
27.10.2020 00:00:00 14,0 8,0 8 4 N 10
26.10.2020 23:00:00 15,0 7,0 8 4 NW 10
26.10.2020 22:00:00 16,0 8,0 9 5 NW 10
26.10.2020 21:00:00 16,0 7,0 9 5 WNW 10
26.10.2020 20:00:00 17,0 8,0 11 6 WNW 10
26.10.2020 19:00:00 17,0 9,0 11 6 W 10
26.10.2020 18:00:00 18,0 9,0 18 10 WNW 10
26.10.2020 17:00:00 19,0 9,0 21 11 WNW 10
26.10.2020 16:00:00 19,0 9,0 26 14 NW 10
26.10.2020 15:00:00 19,0 9,0 22 12 WNW 10
26.10.2020 14:00:00 18,0 9,0 21 11 WNW 10
26.10.2020 13:00:00 17,0 9,0 18 10 NW 10
26.10.2020 12:00:00 17,0 10,0 21 11 NW 10
26.10.2020 11:00:00 17,0 9,0 21 11 NW 10
26.10.2020 10:00:00 17,0 10,0 21 11 NNW 10
26.10.2020 09:00:00 16,0 11,0 13 7 NNW 10
26.10.2020 08:00:00 14,0 12,0 13 7 NNW 10
26.10.2020 07:00:00 15,0 12,0 13 7 NNW 10
26.10.2020 06:00:00 15,0 12,0 9 5 NNW 10
26.10.2020 05:00:00 16,0 12,0 15 8 NW 10
26.10.2020 04:00:00 16,0 13,0 16 9 NW 10
26.10.2020 03:00:00 17,0 13,0 21 11 NW 10
26.10.2020 02:00:00 17,0 15,0 16 9 WNW 10
26.10.2020 01:00:00 16,0 15,0 13 7 WNW 10
26.10.2020 00:00:00 18,0 15,0 29 16 WNW 10
25.10.2020 23:00:00 20,0 17,0 29 16 SW 10
25.10.2020 22:00:00 20,0 17,0 29 16 SW 10
25.10.2020 21:00:00 19,0 17,0 29 16 SW 10
25.10.2020 20:00:00 20,0 16,0 24 13 SW 10
25.10.2020 19:00:00 20,0 15,0 24 13 SW 10
25.10.2020 18:00:00 20,0 15,0 24 13 SW 10
25.10.2020 17:00:00 21,0 15,0 26 14 SW 10
25.10.2020 16:00:00 21,0 15,0 26 14 SW 10
25.10.2020 15:00:00 21,0 14,0 22 12 SW 10
25.10.2020 14:00:00 20,0 15,0 13 7 S 10
25.10.2020 13:00:00 20,0 15,0 9 5 SSW 10
25.10.2020 12:00:00 19,0 14,0 9 5 S 10
25.10.2020 11:00:00 19,0 15,0 5 3 - 10
25.10.2020 10:00:00 17,0 13,0 4 2 - 10
25.10.2020 09:00:00 14,0 13,0 8 4 E 10
25.10.2020 08:00:00 14,0 13,0 5 3 NNE 10
25.10.2020 07:00:00 13,0 12,0 4 2 WNW 10
25.10.2020 06:00:00 13,0 12,0 0 0 N 9
25.10.2020 05:00:00 12,0 11,0 0 0 N 4,0
25.10.2020 04:00:00 13,0 12,0 5 3 E 5
25.10.2020 03:00:00 13,0 11,0 0 0 N 9
25.10.2020 02:00:00 13,0 12,0 4 2 E 7
25.10.2020 01:00:00 - - - - - -
25.10.2020 00:00:00 15,0 13,0 5 3 W 10
24.10.2020 23:00:00 14,0 13,0 2 1 - 10
24.10.2020 22:00:00 15,0 14,0 4 2 - 10
24.10.2020 21:00:00 16,0 14,0 2 1 WNW 10
24.10.2020 20:00:00 17,0 14,0 8 4 WNW 10
24.10.2020 19:00:00 17,0 15,0 9 5 W 10
24.10.2020 18:00:00 18,0 16,0 15 8 W 10
24.10.2020 17:00:00 20,0 16,0 15 8 WSW 10
24.10.2020 16:00:00 20,0 16,0 16 9 WSW 10
24.10.2020 15:00:00 20,0 16,0 13 7 SW 10
24.10.2020 14:00:00 21,0 17,0 13 7 S 10
24.10.2020 13:00:00 21,0 15,0 11 6 S 10
24.10.2020 12:00:00 20,0 15,0 11 6 SSE 10
24.10.2020 11:00:00 20,0 15,0 8 4 SSE 10

tt = temperature
td = dewpoint
ff = wind speed
dd = wind direction
vv = visibility

Next stations